sensor_id;sensor_type;location;lat;lon;timestamp;temperature;humidity
7411;DHT22;3747;48.628;9.058;2022-10-30T00:00:25;14.80;99.90
7411;DHT22;3747;48.628;9.058;2022-10-30T00:02:52;14.80;99.90
7411;DHT22;3747;48.628;9.058;2022-10-30T00:05:19;15.10;99.90
7411;DHT22;3747;48.628;9.058;2022-10-30T00:07:47;15.40;99.90
7411;DHT22;3747;48.628;9.058;2022-10-30T00:10:16;15.70;99.90
7411;DHT22;3747;48.628;9.058;2022-10-30T00:12:43;16.00;99.90
7411;DHT22;3747;48.628;9.058;2022-10-30T00:15:10;15.90;99.90
7411;DHT22;3747;48.628;9.058;2022-10-30T00:17:37;15.90;99.90
7411;DHT22;3747;48.628;9.058;2022-10-30T00:20:05;15.70;99.90
7411;DHT22;3747;48.628;9.058;2022-10-30T00:22:32;15.70;99.90
7411;DHT22;3747;48.628;9.058;2022-10-30T00:25:01;15.60;99.90
7411;DHT22;3747;48.628;9.058;2022-10-30T00:27:28;15.60;99.90
7411;DHT22;3747;48.628;9.058;2022-10-30T00:29:55;15.30;99.90
7411;DHT22;3747;48.628;9.058;2022-10-30T00:32:21;15.10;99.90
7411;DHT22;3747;48.628;9.058;2022-10-30T00:34:48;14.90;99.90
7411;DHT22;3747;48.628;9.058;2022-10-30T00:37:15;14.60;99.90
7411;DHT22;3747;48.628;9.058;2022-10-30T00:39:41;14.40;99.90
7411;DHT22;3747;48.628;9.058;2022-10-30T00:42:11;14.10;99.90
7411;DHT22;3747;48.628;9.058;2022-10-30T00:44:43;13.90;99.90
7411;DHT22;3747;48.628;9.058;2022-10-30T00:47:16;13.70;99.90
7411;DHT22;3747;48.628;9.058;2022-10-30T00:49:51;13.70;99.90
7411;DHT22;3747;48.628;9.058;2022-10-30T00:52:20;13.60;99.90
7411;DHT22;3747;48.628;9.058;2022-10-30T00:54:49;13.50;99.90
7411;DHT22;3747;48.628;9.058;2022-10-30T00:57:17;13.30;99.90
7411;DHT22;3747;48.628;9.058;2022-10-30T00:59:45;13.20;99.90
7411;DHT22;3747;48.628;9.058;2022-10-30T01:02:12;13.20;99.90
7411;DHT22;3747;48.628;9.058;2022-10-30T01:04:40;13.20;99.90
7411;DHT22;3747;48.628;9.058;2022-10-30T01:07:09;13.20;99.90
7411;DHT22;3747;48.628;9.058;2022-10-30T01:09:37;13.20;99.90
7411;DHT22;3747;48.628;9.058;2022-10-30T01:12:05;13.30;99.90
7411;DHT22;3747;48.628;9.058;2022-10-30T01:14:37;13.40;99.90
7411;DHT22;3747;48.628;9.058;2022-10-30T01:20:11;13.90;99.90
7411;DHT22;3747;48.628;9.058;2022-10-30T01:22:51;14.30;99.90
7411;DHT22;3747;48.628;9.058;2022-10-30T01:25:35;14.50;99.90
7411;DHT22;3747;48.628;9.058;2022-10-30T01:28:08;14.90;99.90
7411;DHT22;3747;48.628;9.058;2022-10-30T01:30:47;14.90;99.90
7411;DHT22;3747;48.628;9.058;2022-10-30T01:33:24;14.70;99.90
7411;DHT22;3747;48.628;9.058;2022-10-30T01:35:59;14.50;99.90
7411;DHT22;3747;48.628;9.058;2022-10-30T01:38:32;14.40;99.90
7411;DHT22;3747;48.628;9.058;2022-10-30T01:41:00;14.20;99.90
7411;DHT22;3747;48.628;9.058;2022-10-30T01:43:27;14.20;99.90
7411;DHT22;3747;48.628;9.058;2022-10-30T01:46:08;14.10;99.90
7411;DHT22;3747;48.628;9.058;2022-10-30T01:48:56;14.10;99.90
7411;DHT22;3747;48.628;9.058;2022-10-30T01:51:38;13.90;99.90
7411;DHT22;3747;48.628;9.058;2022-10-30T01:54:18;13.90;99.90
7411;DHT22;3747;48.628;9.058;2022-10-30T01:56:58;13.80;99.90
7411;DHT22;3747;48.628;9.058;2022-10-30T01:59:31;13.80;99.90
7411;DHT22;3747;48.628;9.058;2022-10-30T02:02:01;13.80;99.90
7411;DHT22;3747;48.628;9.058;2022-10-30T02:04:28;13.70;99.90
7411;DHT22;3747;48.628;9.058;2022-10-30T02:06:56;13.60;99.90
7411;DHT22;3747;48.628;9.058;2022-10-30T02:09:23;13.60;99.90
7411;DHT22;3747;48.628;9.058;2022-10-30T02:11:51;13.60;99.90
7411;DHT22;3747;48.628;9.058;2022-10-30T02:14:27;13.60;99.90
7411;DHT22;3747;48.628;9.058;2022-10-30T02:16:57;13.50;99.90
7411;DHT22;3747;48.628;9.058;2022-10-30T02:19:27;13.50;99.90
7411;DHT22;3747;48.628;9.058;2022-10-30T02:21:55;13.50;99.90
7411;DHT22;3747;48.628;9.058;2022-10-30T02:24:22;13.40;99.90
7411;DHT22;3747;48.628;9.058;2022-10-30T02:26:49;13.40;99.90
7411;DHT22;3747;48.628;9.058;2022-10-30T02:29:16;13.50;99.90
7411;DHT22;3747;48.628;9.058;2022-10-30T02:31:45;13.50;99.90
7411;DHT22;3747;48.628;9.058;2022-10-30T02:34:12;13.40;99.90
7411;DHT22;3747;48.628;9.058;2022-10-30T02:36:38;13.40;99.90
7411;DHT22;3747;48.628;9.058;2022-10-30T02:39:06;13.30;99.90
7411;DHT22;3747;48.628;9.058;2022-10-30T02:41:33;13.30;99.90
7411;DHT22;3747;48.628;9.058;2022-10-30T02:44:00;13.30;99.90
7411;DHT22;3747;48.628;9.058;2022-10-30T02:46:27;13.30;99.90
7411;DHT22;3747;48.628;9.058;2022-10-30T02:48:53;13.30;99.90
7411;DHT22;3747;48.628;9.058;2022-10-30T02:51:20;13.20;99.90
7411;DHT22;3747;48.628;9.058;2022-10-30T02:53:47;13.30;99.90
7411;DHT22;3747;48.628;9.058;2022-10-30T02:56:15;13.40;99.90
7411;DHT22;3747;48.628;9.058;2022-10-30T02:58:42;13.60;99.90
7411;DHT22;3747;48.628;9.058;2022-10-30T03:01:11;13.70;99.90
7411;DHT22;3747;48.628;9.058;2022-10-30T03:03:38;13.60;99.90
7411;DHT22;3747;48.628;9.058;2022-10-30T03:06:07;13.50;99.90
7411;DHT22;3747;48.628;9.058;2022-10-30T03:08:35;13.20;99.90
7411;DHT22;3747;48.628;9.058;2022-10-30T03:11:03;13.00;99.90
7411;DHT22;3747;48.628;9.058;2022-10-30T03:13:33;12.90;99.90
7411;DHT22;3747;48.628;9.058;2022-10-30T03:16:00;12.80;99.90
7411;DHT22;3747;48.628;9.058;2022-10-30T03:18:27;12.80;99.90
7411;DHT22;3747;48.628;9.058;2022-10-30T03:20:57;12.70;99.90
7411;DHT22;3747;48.628;9.058;2022-10-30T03:23:24;12.50;99.90
7411;DHT22;3747;48.628;9.058;2022-10-30T03:25:52;12.40;99.90
7411;DHT22;3747;48.628;9.058;2022-10-30T03:28:20;12.30;99.90
7411;DHT22;3747;48.628;9.058;2022-10-30T03:30:49;12.20;99.90
7411;DHT22;3747;48.628;9.058;2022-10-30T03:33:16;12.10;99.90
7411;DHT22;3747;48.628;9.058;2022-10-30T03:35:43;12.10;99.90
7411;DHT22;3747;48.628;9.058;2022-10-30T03:38:10;12.10;99.90
7411;DHT22;3747;48.628;9.058;2022-10-30T03:40:37;12.00;99.90
7411;DHT22;3747;48.628;9.058;2022-10-30T03:43:04;12.00;99.90
7411;DHT22;3747;48.628;9.058;2022-10-30T03:45:31;11.90;99.90
7411;DHT22;3747;48.628;9.058;2022-10-30T03:47:59;12.00;99.90
7411;DHT22;3747;48.628;9.058;2022-10-30T03:50:27;12.40;99.90
7411;DHT22;3747;48.628;9.058;2022-10-30T03:52:54;12.80;99.90
7411;DHT22;3747;48.628;9.058;2022-10-30T03:55:21;13.20;99.90
7411;DHT22;3747;48.628;9.058;2022-10-30T03:57:48;13.40;99.90
7411;DHT22;3747;48.628;9.058;2022-10-30T04:00:16;13.40;99.90
7411;DHT22;3747;48.628;9.058;2022-10-30T04:02:44;13.50;99.90
7411;DHT22;3747;48.628;9.058;2022-10-30T04:05:13;13.60;99.90
7411;DHT22;3747;48.628;9.058;2022-10-30T04:07:40;13.50;99.90
7411;DHT22;3747;48.628;9.058;2022-10-30T04:10:07;13.40;99.90
7411;DHT22;3747;48.628;9.058;2022-10-30T04:12:34;13.30;99.90
7411;DHT22;3747;48.628;9.058;2022-10-30T04:15:01;13.30;99.90
7411;DHT22;3747;48.628;9.058;2022-10-30T04:17:28;13.00;99.90
7411;DHT22;3747;48.628;9.058;2022-10-30T04:19:55;12.70;99.90
7411;DHT22;3747;48.628;9.058;2022-10-30T04:22:23;12.30;99.90
7411;DHT22;3747;48.628;9.058;2022-10-30T04:24:49;12.00;99.90
7411;DHT22;3747;48.628;9.058;2022-10-30T04:27:18;11.80;99.90
7411;DHT22;3747;48.628;9.058;2022-10-30T04:29:45;11.60;99.90
7411;DHT22;3747;48.628;9.058;2022-10-30T04:32:12;11.50;99.90
7411;DHT22;3747;48.628;9.058;2022-10-30T04:34:39;11.40;99.90
7411;DHT22;3747;48.628;9.058;2022-10-30T04:37:06;11.40;99.90
7411;DHT22;3747;48.628;9.058;2022-10-30T04:39:34;11.50;99.90
7411;DHT22;3747;48.628;9.058;2022-10-30T04:42:01;11.40;99.90
7411;DHT22;3747;48.628;9.058;2022-10-30T04:44:28;11.50;99.90
7411;DHT22;3747;48.628;9.058;2022-10-30T04:46:55;11.40;99.90
7411;DHT22;3747;48.628;9.058;2022-10-30T04:49:21;11.50;99.90
7411;DHT22;3747;48.628;9.058;2022-10-30T04:51:48;11.80;99.90
7411;DHT22;3747;48.628;9.058;2022-10-30T04:54:15;11.80;99.90
7411;DHT22;3747;48.628;9.058;2022-10-30T04:56:43;11.70;99.90
7411;DHT22;3747;48.628;9.058;2022-10-30T04:59:10;11.60;99.90
7411;DHT22;3747;48.628;9.058;2022-10-30T05:01:36;11.50;99.90
7411;DHT22;3747;48.628;9.058;2022-10-30T05:04:03;11.30;99.90
7411;DHT22;3747;48.628;9.058;2022-10-30T05:06:30;11.10;99.90
7411;DHT22;3747;48.628;9.058;2022-10-30T05:08:57;10.90;99.90
7411;DHT22;3747;48.628;9.058;2022-10-30T05:11:24;10.80;99.90
7411;DHT22;3747;48.628;9.058;2022-10-30T05:13:52;10.60;99.90
7411;DHT22;3747;48.628;9.058;2022-10-30T05:16:18;10.60;99.90
7411;DHT22;3747;48.628;9.058;2022-10-30T05:18:45;10.60;99.90
7411;DHT22;3747;48.628;9.058;2022-10-30T05:21:12;10.60;99.90
7411;DHT22;3747;48.628;9.058;2022-10-30T05:23:39;10.70;99.90
7411;DHT22;3747;48.628;9.058;2022-10-30T05:26:05;10.70;99.90
7411;DHT22;3747;48.628;9.058;2022-10-30T05:28:32;10.70;99.90
7411;DHT22;3747;48.628;9.058;2022-10-30T05:31:00;10.60;99.90
7411;DHT22;3747;48.628;9.058;2022-10-30T05:33:27;10.50;99.90
7411;DHT22;3747;48.628;9.058;2022-10-30T05:35:53;10.60;99.90
7411;DHT22;3747;48.628;9.058;2022-10-30T05:38:20;10.60;99.90
7411;DHT22;3747;48.628;9.058;2022-10-30T05:40:47;10.70;99.90
7411;DHT22;3747;48.628;9.058;2022-10-30T05:43:14;10.60;99.90
7411;DHT22;3747;48.628;9.058;2022-10-30T05:45:40;10.50;99.90
7411;DHT22;3747;48.628;9.058;2022-10-30T05:48:08;10.50;99.90
7411;DHT22;3747;48.628;9.058;2022-10-30T05:50:35;10.40;99.90
7411;DHT22;3747;48.628;9.058;2022-10-30T05:53:04;10.40;99.90
7411;DHT22;3747;48.628;9.058;2022-10-30T05:55:31;10.50;99.90
7411;DHT22;3747;48.628;9.058;2022-10-30T05:57:59;10.40;99.90
7411;DHT22;3747;48.628;9.058;2022-10-30T06:00:28;10.40;99.90
7411;DHT22;3747;48.628;9.058;2022-10-30T06:02:58;10.50;99.90
7411;DHT22;3747;48.628;9.058;2022-10-30T06:05:28;10.40;99.90
7411;DHT22;3747;48.628;9.058;2022-10-30T06:07:55;10.30;99.90
7411;DHT22;3747;48.628;9.058;2022-10-30T06:10:22;10.30;99.90
7411;DHT22;3747;48.628;9.058;2022-10-30T06:12:52;10.40;99.90
7411;DHT22;3747;48.628;9.058;2022-10-30T06:15:19;10.40;99.90
7411;DHT22;3747;48.628;9.058;2022-10-30T06:17:46;10.40;99.90
7411;DHT22;3747;48.628;9.058;2022-10-30T06:20:13;10.40;99.90
7411;DHT22;3747;48.628;9.058;2022-10-30T06:22:41;10.40;99.90
7411;DHT22;3747;48.628;9.058;2022-10-30T06:25:08;10.40;99.90
7411;DHT22;3747;48.628;9.058;2022-10-30T06:27:35;10.40;99.90
7411;DHT22;3747;48.628;9.058;2022-10-30T06:30:01;10.60;99.90
7411;DHT22;3747;48.628;9.058;2022-10-30T06:32:28;10.70;99.90
7411;DHT22;3747;48.628;9.058;2022-10-30T06:34:55;10.80;99.90
7411;DHT22;3747;48.628;9.058;2022-10-30T06:37:22;10.90;99.90
7411;DHT22;3747;48.628;9.058;2022-10-30T06:39:50;11.10;99.90
7411;DHT22;3747;48.628;9.058;2022-10-30T06:42:17;11.20;99.90
7411;DHT22;3747;48.628;9.058;2022-10-30T06:44:43;11.30;99.90
7411;DHT22;3747;48.628;9.058;2022-10-30T06:47:10;11.40;99.90
7411;DHT22;3747;48.628;9.058;2022-10-30T06:49:37;11.70;99.90
7411;DHT22;3747;48.628;9.058;2022-10-30T06:52:03;12.00;99.90
7411;DHT22;3747;48.628;9.058;2022-10-30T06:54:31;12.30;99.90
7411;DHT22;3747;48.628;9.058;2022-10-30T06:56:59;12.60;99.90
7411;DHT22;3747;48.628;9.058;2022-10-30T06:59:26;12.90;99.90
7411;DHT22;3747;48.628;9.058;2022-10-30T07:01:53;13.50;99.90
7411;DHT22;3747;48.628;9.058;2022-10-30T07:04:20;13.80;99.90
7411;DHT22;3747;48.628;9.058;2022-10-30T07:06:47;14.10;99.90
7411;DHT22;3747;48.628;9.058;2022-10-30T07:09:14;13.90;99.90
7411;DHT22;3747;48.628;9.058;2022-10-30T07:11:41;13.90;99.90
7411;DHT22;3747;48.628;9.058;2022-10-30T07:14:11;14.10;99.90
7411;DHT22;3747;48.628;9.058;2022-10-30T07:16:38;14.30;99.90
7411;DHT22;3747;48.628;9.058;2022-10-30T07:19:05;14.40;99.90
7411;DHT22;3747;48.628;9.058;2022-10-30T07:21:32;14.30;99.90
7411;DHT22;3747;48.628;9.058;2022-10-30T07:23:59;14.10;99.90
7411;DHT22;3747;48.628;9.058;2022-10-30T07:26:28;14.10;99.90
7411;DHT22;3747;48.628;9.058;2022-10-30T07:28:57;14.10;99.90
7411;DHT22;3747;48.628;9.058;2022-10-30T07:31:25;14.10;99.90
7411;DHT22;3747;48.628;9.058;2022-10-30T07:33:52;14.20;99.90
7411;DHT22;3747;48.628;9.058;2022-10-30T07:36:19;14.10;99.90
7411;DHT22;3747;48.628;9.058;2022-10-30T07:38:46;14.20;99.90
7411;DHT22;3747;48.628;9.058;2022-10-30T07:41:13;14.10;99.90
7411;DHT22;3747;48.628;9.058;2022-10-30T07:43:40;14.00;99.90
7411;DHT22;3747;48.628;9.058;2022-10-30T07:46:06;14.40;99.90
7411;DHT22;3747;48.628;9.058;2022-10-30T07:48:34;14.40;99.90
7411;DHT22;3747;48.628;9.058;2022-10-30T07:51:01;14.70;99.90
7411;DHT22;3747;48.628;9.058;2022-10-30T07:53:28;14.80;99.90
7411;DHT22;3747;48.628;9.058;2022-10-30T07:55:55;15.00;99.90
7411;DHT22;3747;48.628;9.058;2022-10-30T07:58:22;15.20;99.90
7411;DHT22;3747;48.628;9.058;2022-10-30T08:00:48;15.70;99.90
7411;DHT22;3747;48.628;9.058;2022-10-30T08:03:15;16.20;99.90
7411;DHT22;3747;48.628;9.058;2022-10-30T08:05:43;16.90;99.90
7411;DHT22;3747;48.628;9.058;2022-10-30T08:08:10;17.50;99.90
7411;DHT22;3747;48.628;9.058;2022-10-30T08:10:37;17.70;99.90
7411;DHT22;3747;48.628;9.058;2022-10-30T08:13:04;18.60;99.90
7411;DHT22;3747;48.628;9.058;2022-10-30T08:15:30;19.00;99.90
7411;DHT22;3747;48.628;9.058;2022-10-30T08:17:58;19.40;99.90
7411;DHT22;3747;48.628;9.058;2022-10-30T08:20:25;20.00;99.90
7411;DHT22;3747;48.628;9.058;2022-10-30T08:22:54;20.40;99.90
7411;DHT22;3747;48.628;9.058;2022-10-30T08:25:34;20.90;99.90
7411;DHT22;3747;48.628;9.058;2022-10-30T08:28:03;20.90;99.90
7411;DHT22;3747;48.628;9.058;2022-10-30T08:30:32;21.00;99.90
7411;DHT22;3747;48.628;9.058;2022-10-30T08:33:01;20.40;99.90
7411;DHT22;3747;48.628;9.058;2022-10-30T08:35:28;20.90;99.90
7411;DHT22;3747;48.628;9.058;2022-10-30T08:37:56;21.20;99.90
7411;DHT22;3747;48.628;9.058;2022-10-30T08:40:24;21.90;99.90
7411;DHT22;3747;48.628;9.058;2022-10-30T08:42:52;22.20;99.90
7411;DHT22;3747;48.628;9.058;2022-10-30T08:45:19;22.50;99.90
7411;DHT22;3747;48.628;9.058;2022-10-30T08:47:47;23.10;99.90
7411;DHT22;3747;48.628;9.058;2022-10-30T08:50:14;23.60;99.90
7411;DHT22;3747;48.628;9.058;2022-10-30T08:52:40;24.00;99.90
7411;DHT22;3747;48.628;9.058;2022-10-30T08:55:09;23.80;99.90
7411;DHT22;3747;48.628;9.058;2022-10-30T08:57:37;24.40;99.90
7411;DHT22;3747;48.628;9.058;2022-10-30T09:00:04;24.50;99.90
7411;DHT22;3747;48.628;9.058;2022-10-30T09:02:32;24.50;99.90
7411;DHT22;3747;48.628;9.058;2022-10-30T09:04:59;24.80;99.90
7411;DHT22;3747;48.628;9.058;2022-10-30T09:07:26;25.10;99.90
7411;DHT22;3747;48.628;9.058;2022-10-30T09:09:52;24.80;99.90
7411;DHT22;3747;48.628;9.058;2022-10-30T09:12:21;24.90;99.90
7411;DHT22;3747;48.628;9.058;2022-10-30T09:14:47;23.90;99.90
7411;DHT22;3747;48.628;9.058;2022-10-30T09:17:14;22.60;99.90
7411;DHT22;3747;48.628;9.058;2022-10-30T09:19:41;21.80;99.90
7411;DHT22;3747;48.628;9.058;2022-10-30T09:22:07;21.10;99.90
7411;DHT22;3747;48.628;9.058;2022-10-30T09:24:34;20.70;99.90
7411;DHT22;3747;48.628;9.058;2022-10-30T09:27:01;20.30;99.90
7411;DHT22;3747;48.628;9.058;2022-10-30T09:29:29;20.10;99.90
7411;DHT22;3747;48.628;9.058;2022-10-30T09:31:56;19.90;99.90
7411;DHT22;3747;48.628;9.058;2022-10-30T09:34:31;19.80;99.90
7411;DHT22;3747;48.628;9.058;2022-10-30T09:36:58;19.80;99.90
7411;DHT22;3747;48.628;9.058;2022-10-30T09:39:24;19.70;99.90
7411;DHT22;3747;48.628;9.058;2022-10-30T09:42:07;19.70;99.90
7411;DHT22;3747;48.628;9.058;2022-10-30T09:44:46;19.60;99.90
7411;DHT22;3747;48.628;9.058;2022-10-30T09:47:32;19.80;99.90
7411;DHT22;3747;48.628;9.058;2022-10-30T09:50:15;19.80;99.90
7411;DHT22;3747;48.628;9.058;2022-10-30T09:52:54;19.70;99.90
7411;DHT22;3747;48.628;9.058;2022-10-30T09:55:29;19.60;99.90
7411;DHT22;3747;48.628;9.058;2022-10-30T09:58:08;19.60;99.90
7411;DHT22;3747;48.628;9.058;2022-10-30T10:00:41;19.60;99.90
7411;DHT22;3747;48.628;9.058;2022-10-30T10:03:20;19.70;99.90
7411;DHT22;3747;48.628;9.058;2022-10-30T10:05:51;19.70;99.90
7411;DHT22;3747;48.628;9.058;2022-10-30T10:08:22;19.80;99.90
7411;DHT22;3747;48.628;9.058;2022-10-30T10:10:52;19.90;99.90
7411;DHT22;3747;48.628;9.058;2022-10-30T10:13:27;20.00;99.90
7411;DHT22;3747;48.628;9.058;2022-10-30T10:15:58;20.10;99.90
7411;DHT22;3747;48.628;9.058;2022-10-30T10:18:32;20.20;99.90
7411;DHT22;3747;48.628;9.058;2022-10-30T10:21:07;20.20;99.90
7411;DHT22;3747;48.628;9.058;2022-10-30T10:23:43;20.40;99.90
7411;DHT22;3747;48.628;9.058;2022-10-30T10:26:22;20.50;99.90
7411;DHT22;3747;48.628;9.058;2022-10-30T10:29:00;20.60;99.90
7411;DHT22;3747;48.628;9.058;2022-10-30T10:31:38;20.80;99.90
7411;DHT22;3747;48.628;9.058;2022-10-30T10:34:31;20.90;99.90
7411;DHT22;3747;48.628;9.058;2022-10-30T10:37:08;21.10;99.90
7411;DHT22;3747;48.628;9.058;2022-10-30T10:40:00;21.30;99.90
7411;DHT22;3747;48.628;9.058;2022-10-30T10:42:42;21.40;99.90
7411;DHT22;3747;48.628;9.058;2022-10-30T10:45:23;21.50;99.90
7411;DHT22;3747;48.628;9.058;2022-10-30T10:50:55;21.50;99.90
7411;DHT22;3747;48.628;9.058;2022-10-30T10:53:26;21.60;99.90
7411;DHT22;3747;48.628;9.058;2022-10-30T10:55:58;21.60;99.90
7411;DHT22;3747;48.628;9.058;2022-10-30T10:58:29;21.70;99.90
7411;DHT22;3747;48.628;9.058;2022-10-30T11:00:57;21.70;99.90
7411;DHT22;3747;48.628;9.058;2022-10-30T11:03:31;21.90;99.90
7411;DHT22;3747;48.628;9.058;2022-10-30T11:06:07;22.00;99.90
7411;DHT22;3747;48.628;9.058;2022-10-30T11:08:37;22.10;99.90
7411;DHT22;3747;48.628;9.058;2022-10-30T11:11:05;22.30;99.90
7411;DHT22;3747;48.628;9.058;2022-10-30T11:13:35;22.40;99.90
7411;DHT22;3747;48.628;9.058;2022-10-30T11:16:12;22.50;99.90
7411;DHT22;3747;48.628;9.058;2022-10-30T11:18:43;22.50;99.90
7411;DHT22;3747;48.628;9.058;2022-10-30T11:21:16;22.60;99.90
7411;DHT22;3747;48.628;9.058;2022-10-30T11:23:45;22.60;99.90
7411;DHT22;3747;48.628;9.058;2022-10-30T11:26:26;22.70;99.90
7411;DHT22;3747;48.628;9.058;2022-10-30T11:28:56;22.70;99.90
7411;DHT22;3747;48.628;9.058;2022-10-30T11:31:26;22.80;99.90
7411;DHT22;3747;48.628;9.058;2022-10-30T11:34:27;22.80;99.90
7411;DHT22;3747;48.628;9.058;2022-10-30T11:36:57;22.80;99.90
7411;DHT22;3747;48.628;9.058;2022-10-30T11:39:25;22.80;99.90
7411;DHT22;3747;48.628;9.058;2022-10-30T11:42:05;22.90;99.90
7411;DHT22;3747;48.628;9.058;2022-10-30T11:44:35;23.00;99.90
7411;DHT22;3747;48.628;9.058;2022-10-30T11:47:03;23.20;99.90
7411;DHT22;3747;48.628;9.058;2022-10-30T11:49:40;23.40;99.90
7411;DHT22;3747;48.628;9.058;2022-10-30T11:52:10;23.40;99.90
7411;DHT22;3747;48.628;9.058;2022-10-30T11:54:40;23.50;99.90
7411;DHT22;3747;48.628;9.058;2022-10-30T11:57:18;23.60;99.90
7411;DHT22;3747;48.628;9.058;2022-10-30T11:59:47;23.80;99.90
7411;DHT22;3747;48.628;9.058;2022-10-30T12:02:21;23.90;99.90
7411;DHT22;3747;48.628;9.058;2022-10-30T12:04:53;24.00;99.90
7411;DHT22;3747;48.628;9.058;2022-10-30T12:07:25;24.10;99.90
7411;DHT22;3747;48.628;9.058;2022-10-30T12:09:54;24.30;99.90
7411;DHT22;3747;48.628;9.058;2022-10-30T12:12:23;24.40;99.90
7411;DHT22;3747;48.628;9.058;2022-10-30T12:14:52;24.50;99.90
7411;DHT22;3747;48.628;9.058;2022-10-30T12:17:20;24.60;99.90
7411;DHT22;3747;48.628;9.058;2022-10-30T12:19:49;24.70;99.90
7411;DHT22;3747;48.628;9.058;2022-10-30T12:22:30;24.90;99.90
7411;DHT22;3747;48.628;9.058;2022-10-30T12:25:22;25.10;99.90
7411;DHT22;3747;48.628;9.058;2022-10-30T12:27:50;25.20;99.90
7411;DHT22;3747;48.628;9.058;2022-10-30T12:30:23;25.20;99.90
7411;DHT22;3747;48.628;9.058;2022-10-30T12:32:55;25.20;99.90
7411;DHT22;3747;48.628;9.058;2022-10-30T12:35:38;24.70;99.90
7411;DHT22;3747;48.628;9.058;2022-10-30T12:38:12;24.60;99.90
7411;DHT22;3747;48.628;9.058;2022-10-30T12:40:43;24.40;99.90
7411;DHT22;3747;48.628;9.058;2022-10-30T12:43:18;24.00;99.90
7411;DHT22;3747;48.628;9.058;2022-10-30T12:45:47;24.20;99.90
7411;DHT22;3747;48.628;9.058;2022-10-30T12:48:21;24.30;99.90
7411;DHT22;3747;48.628;9.058;2022-10-30T12:51:10;24.40;99.90
7411;DHT22;3747;48.628;9.058;2022-10-30T12:53:45;24.30;99.90
7411;DHT22;3747;48.628;9.058;2022-10-30T12:56:16;24.40;99.90
7411;DHT22;3747;48.628;9.058;2022-10-30T12:58:45;24.40;99.90
7411;DHT22;3747;48.628;9.058;2022-10-30T13:01:21;24.40;99.90
7411;DHT22;3747;48.628;9.058;2022-10-30T13:03:54;24.20;99.90
7411;DHT22;3747;48.628;9.058;2022-10-30T13:06:25;24.00;99.90
7411;DHT22;3747;48.628;9.058;2022-10-30T13:09:03;24.20;99.90
7411;DHT22;3747;48.628;9.058;2022-10-30T13:11:38;24.20;99.90
7411;DHT22;3747;48.628;9.058;2022-10-30T13:14:12;24.20;99.90
7411;DHT22;3747;48.628;9.058;2022-10-30T13:16:40;24.40;99.90
7411;DHT22;3747;48.628;9.058;2022-10-30T13:19:10;24.30;99.90
7411;DHT22;3747;48.628;9.058;2022-10-30T13:21:42;24.40;99.90
7411;DHT22;3747;48.628;9.058;2022-10-30T13:24:18;24.40;99.90
7411;DHT22;3747;48.628;9.058;2022-10-30T13:26:51;24.40;99.90
7411;DHT22;3747;48.628;9.058;2022-10-30T13:29:22;24.40;99.90
7411;DHT22;3747;48.628;9.058;2022-10-30T13:31:59;24.50;99.90
7411;DHT22;3747;48.628;9.058;2022-10-30T13:34:34;24.30;99.90
7411;DHT22;3747;48.628;9.058;2022-10-30T13:37:07;24.50;99.90
7411;DHT22;3747;48.628;9.058;2022-10-30T13:39:41;24.70;99.90
7411;DHT22;3747;48.628;9.058;2022-10-30T13:42:26;24.80;99.90
7411;DHT22;3747;48.628;9.058;2022-10-30T13:45:04;24.70;99.90
7411;DHT22;3747;48.628;9.058;2022-10-30T13:47:43;24.40;99.90
7411;DHT22;3747;48.628;9.058;2022-10-30T13:50:25;24.70;99.90
7411;DHT22;3747;48.628;9.058;2022-10-30T13:52:57;24.70;99.90
7411;DHT22;3747;48.628;9.058;2022-10-30T13:55:29;24.40;99.90
7411;DHT22;3747;48.628;9.058;2022-10-30T13:58:00;24.40;99.90
7411;DHT22;3747;48.628;9.058;2022-10-30T14:00:42;24.50;99.90
7411;DHT22;3747;48.628;9.058;2022-10-30T14:03:36;24.60;99.90
7411;DHT22;3747;48.628;9.058;2022-10-30T14:06:11;24.70;99.90
7411;DHT22;3747;48.628;9.058;2022-10-30T14:08:42;24.80;99.90
7411;DHT22;3747;48.628;9.058;2022-10-30T14:11:26;24.80;99.90
7411;DHT22;3747;48.628;9.058;2022-10-30T14:13:54;24.70;99.90
7411;DHT22;3747;48.628;9.058;2022-10-30T14:16:32;24.60;99.90
7411;DHT22;3747;48.628;9.058;2022-10-30T14:19:00;24.60;99.90
7411;DHT22;3747;48.628;9.058;2022-10-30T14:21:37;24.60;99.90
7411;DHT22;3747;48.628;9.058;2022-10-30T14:24:13;24.70;99.90
7411;DHT22;3747;48.628;9.058;2022-10-30T14:26:45;24.70;99.90
7411;DHT22;3747;48.628;9.058;2022-10-30T14:29:39;24.60;99.90
7411;DHT22;3747;48.628;9.058;2022-10-30T14:32:31;24.40;99.90
7411;DHT22;3747;48.628;9.058;2022-10-30T14:34:59;24.20;99.90
7411;DHT22;3747;48.628;9.058;2022-10-30T14:37:54;24.00;99.90
7411;DHT22;3747;48.628;9.058;2022-10-30T14:40:36;23.90;99.90
7411;DHT22;3747;48.628;9.058;2022-10-30T14:43:09;23.60;99.90
7411;DHT22;3747;48.628;9.058;2022-10-30T14:45:42;23.50;99.90
7411;DHT22;3747;48.628;9.058;2022-10-30T14:48:24;23.50;99.90
7411;DHT22;3747;48.628;9.058;2022-10-30T14:51:00;23.30;99.90
7411;DHT22;3747;48.628;9.058;2022-10-30T14:53:41;23.20;99.90
7411;DHT22;3747;48.628;9.058;2022-10-30T14:56:22;23.00;99.90
7411;DHT22;3747;48.628;9.058;2022-10-30T14:59:18;22.80;99.90
7411;DHT22;3747;48.628;9.058;2022-10-30T15:01:51;22.60;99.90
7411;DHT22;3747;48.628;9.058;2022-10-30T15:04:24;22.30;99.90
7411;DHT22;3747;48.628;9.058;2022-10-30T15:06:59;22.10;99.90
7411;DHT22;3747;48.628;9.058;2022-10-30T15:09:58;21.90;99.90
7411;DHT22;3747;48.628;9.058;2022-10-30T15:12:46;21.70;99.90
7411;DHT22;3747;48.628;9.058;2022-10-30T15:15:17;21.50;99.90
7411;DHT22;3747;48.628;9.058;2022-10-30T15:17:46;21.40;99.90
7411;DHT22;3747;48.628;9.058;2022-10-30T15:20:17;21.40;99.90
7411;DHT22;3747;48.628;9.058;2022-10-30T15:22:47;21.50;99.90
7411;DHT22;3747;48.628;9.058;2022-10-30T15:25:17;21.80;99.90
7411;DHT22;3747;48.628;9.058;2022-10-30T15:27:46;21.90;99.90
7411;DHT22;3747;48.628;9.058;2022-10-30T15:30:18;22.00;99.90
7411;DHT22;3747;48.628;9.058;2022-10-30T15:32:45;21.90;99.90
7411;DHT22;3747;48.628;9.058;2022-10-30T15:35:16;21.70;99.90
7411;DHT22;3747;48.628;9.058;2022-10-30T15:38:00;21.40;99.90
7411;DHT22;3747;48.628;9.058;2022-10-30T15:40:27;21.00;99.90
7411;DHT22;3747;48.628;9.058;2022-10-30T15:42:55;20.50;99.90
7411;DHT22;3747;48.628;9.058;2022-10-30T15:45:28;20.10;99.90
7411;DHT22;3747;48.628;9.058;2022-10-30T15:47:59;19.70;99.90
7411;DHT22;3747;48.628;9.058;2022-10-30T15:50:26;19.40;99.90
7411;DHT22;3747;48.628;9.058;2022-10-30T15:52:54;19.10;99.90
7411;DHT22;3747;48.628;9.058;2022-10-30T15:55:25;18.80;99.90
7411;DHT22;3747;48.628;9.058;2022-10-30T15:57:54;18.50;99.90
7411;DHT22;3747;48.628;9.058;2022-10-30T16:00:26;18.30;99.90
7411;DHT22;3747;48.628;9.058;2022-10-30T16:03:01;18.10;99.90
7411;DHT22;3747;48.628;9.058;2022-10-30T16:05:29;17.80;99.90
7411;DHT22;3747;48.628;9.058;2022-10-30T16:07:57;17.60;99.90
7411;DHT22;3747;48.628;9.058;2022-10-30T16:10:32;17.40;99.90
7411;DHT22;3747;48.628;9.058;2022-10-30T16:13:00;17.10;99.90
7411;DHT22;3747;48.628;9.058;2022-10-30T16:15:31;17.00;99.90
7411;DHT22;3747;48.628;9.058;2022-10-30T16:18:06;16.80;99.90
7411;DHT22;3747;48.628;9.058;2022-10-30T16:20:34;16.60;99.90
7411;DHT22;3747;48.628;9.058;2022-10-30T16:23:03;16.40;99.90
7411;DHT22;3747;48.628;9.058;2022-10-30T16:25:30;16.20;99.90
7411;DHT22;3747;48.628;9.058;2022-10-30T16:28:02;16.10;99.90
7411;DHT22;3747;48.628;9.058;2022-10-30T16:30:30;16.00;99.90